Time;durP1;ratioP1;P1;durP2;ratioP2;P2;SDS_P1;SDS_P2;PMS_P1;PMS_P2;Temp;Humidity;BMP_temperature;BMP_pressure;BME280_temperature;BME280_humidity;BME280_pressure;Samples;Min_cycle;Max_cycle;Signal;HPM_P1;HPM_P2
2024/04/13 00:01:12;;;;;;;1999.90;999.90;;;15.40;99.90;;;;;;5523881;26;20000;-71
2024/04/13 00:03:40;;;;;;;1999.90;999.90;;;15.40;99.90;;;;;;5522379;26;20458;-71
2024/04/13 00:06:07;;;;;;;1999.90;999.90;;;15.40;99.90;;;;;;5523669;26;19993;-66
2024/04/13 00:08:35;;;;;;;1999.90;999.90;;;15.40;99.90;;;;;;5523345;26;20006;-70
2024/04/13 00:11:01;;;;;;;1999.90;999.90;;;15.50;99.90;;;;;;5523507;26;19993;-67
2024/04/13 00:13:28;;;;;;;1999.90;999.90;;;15.60;99.90;;;;;;5523502;26;20596;-70
2024/04/13 00:15:55;;;;;;;1999.90;999.90;;;15.60;99.90;;;;;;5523615;26;20050;-71
2024/04/13 00:18:20;;;;;;;1999.90;999.90;;;15.50;99.90;;;;;;5523711;26;20107;-67
2024/04/13 00:20:46;;;;;;;1999.90;999.90;;;15.30;99.90;;;;;;5523219;26;20369;-66
2024/04/13 00:23:12;;;;;;;1999.90;999.90;;;15.20;99.90;;;;;;5505694;26;20047;-71
2024/04/13 00:25:37;;;;;;;1999.90;999.90;;;15.10;99.90;;;;;;5486131;26;19998;-70
2024/04/13 00:28:05;;;;;;;1999.90;999.90;;;15.10;99.90;;;;;;5486462;26;20013;-70
2024/04/13 00:30:31;;;;;;;1999.90;999.90;;;15.10;99.90;;;;;;5516388;26;20021;-67
2024/04/13 00:32:57;;;;;;;1999.90;999.90;;;15.20;99.90;;;;;;5521737;26;20455;-66
2024/04/13 00:35:23;;;;;;;1999.90;999.90;;;15.20;99.90;;;;;;5523194;26;20001;-66
2024/04/13 00:37:48;;;;;;;1999.90;999.90;;;15.30;99.90;;;;;;5523293;26;20068;-66
2024/04/13 00:40:15;;;;;;;1999.90;999.90;;;15.40;99.90;;;;;;5523398;26;19997;-66
2024/04/13 00:42:40;;;;;;;1999.90;999.90;;;15.50;99.90;;;;;;5524626;26;19998;-66
2024/04/13 00:45:06;;;;;;;1999.90;999.90;;;15.60;99.90;;;;;;5527065;26;19993;-67
2024/04/13 00:47:35;;;;;;;1999.90;999.90;;;15.60;99.90;;;;;;5526545;26;20104;-66
2024/04/13 00:50:11;;;;;;;1999.90;999.90;;;15.70;99.90;;;;;;5526055;26;20000;-67
2024/04/13 00:52:48;;;;;;;1999.90;999.90;;;15.70;99.90;;;;;;5526478;26;19989;-66
2024/04/13 00:55:15;;;;;;;1999.90;999.90;;;15.70;99.90;;;;;;5525992;26;19997;-67
2024/04/13 00:57:42;;;;;;;1999.90;999.90;;;15.80;99.90;;;;;;5525857;26;20316;-67
2024/04/13 01:00:12;;;;;;;1999.90;999.90;;;15.90;99.90;;;;;;5527073;26;20004;-70
2024/04/13 01:02:42;;;;;;;1999.90;999.90;;;15.90;99.90;;;;;;5526571;26;20073;-67
2024/04/13 01:05:09;;;;;;;1999.90;999.90;;;15.80;99.90;;;;;;5527069;26;19993;-70
2024/04/13 01:07:34;;;;;;;1999.90;999.90;;;15.80;99.90;;;;;;5526783;26;20009;-71
2024/04/13 01:10:00;;;;;;;1999.90;999.90;;;15.80;99.90;;;;;;5527123;26;20312;-66
2024/04/13 01:12:26;;;;;;;1999.90;999.90;;;15.70;99.90;;;;;;5526950;26;20005;-66
2024/04/13 01:14:52;;;;;;;1999.90;999.90;;;15.70;99.90;;;;;;5526281;26;20021;-66
2024/04/13 01:17:17;;;;;;;1999.90;999.90;;;15.70;99.90;;;;;;5526805;26;20012;-71
2024/04/13 01:19:43;;;;;;;1999.90;999.90;;;15.70;99.90;;;;;;5526588;26;20058;-70
2024/04/13 01:22:10;;;;;;;1999.90;999.90;;;15.70;99.90;;;;;;5524688;26;20133;-66
2024/04/13 01:24:40;;;;;;;1999.90;999.90;;;15.60;99.90;;;;;;5490187;26;19990;-66
2024/04/13 01:27:06;;;;;;;1999.90;999.90;;;15.60;99.90;;;;;;5489886;26;20002;-66
2024/04/13 01:29:32;;;;;;;1999.90;999.90;;;15.50;99.90;;;;;;5504513;26;20033;-66
2024/04/13 01:31:58;;;;;;;1999.90;999.90;;;15.60;99.90;;;;;;5526000;26;19997;-70
2024/04/13 01:34:24;;;;;;;1999.90;999.90;;;15.70;99.90;;;;;;5526391;26;19994;-71
2024/04/13 01:36:49;;;;;;;1999.90;999.90;;;15.70;99.90;;;;;;5525952;26;20030;-66
2024/04/13 01:39:15;;;;;;;1999.90;999.90;;;15.80;99.90;;;;;;5526101;26;20004;-71
2024/04/13 01:41:51;;;;;;;1999.90;999.90;;;15.80;99.90;;;;;;5525884;26;20008;-66
2024/04/13 01:44:17;;;;;;;1999.90;999.90;;;15.80;99.90;;;;;;5526018;26;19993;-71
2024/04/13 01:46:43;;;;;;;1999.90;999.90;;;15.80;99.90;;;;;;5525995;26;20559;-66
2024/04/13 01:49:08;;;;;;;1999.90;999.90;;;15.80;99.90;;;;;;5525656;26;19993;-66
2024/04/13 01:51:34;;;;;;;1999.90;999.90;;;15.80;99.90;;;;;;5525526;26;20030;-71
2024/04/13 01:54:00;;;;;;;1999.90;999.90;;;15.90;99.90;;;;;;5524421;26;19994;-66
2024/04/13 01:56:27;;;;;;;1999.90;999.90;;;16.00;99.90;;;;;;5525793;26;20355;-71
2024/04/13 01:58:53;;;;;;;1999.90;999.90;;;16.00;99.90;;;;;;5525774;26;20348;-66
2024/04/13 02:01:20;;;;;;;1999.90;999.90;;;16.00;99.90;;;;;;5525729;26;20452;-66
2024/04/13 02:03:48;;;;;;;1999.90;999.90;;;16.00;99.90;;;;;;5525350;26;20001;-71
2024/04/13 02:06:14;;;;;;;1999.90;999.90;;;16.00;99.90;;;;;;5525763;26;19993;-66
2024/04/13 02:08:40;;;;;;;1999.90;999.90;;;16.00;99.90;;;;;;5525450;25;20324;-66
2024/04/13 02:11:06;;;;;;;1999.90;999.90;;;15.90;99.90;;;;;;5525651;26;21739;-67
2024/04/13 02:13:33;;;;;;;1999.90;999.90;;;16.00;99.90;;;;;;5525555;26;20008;-67
2024/04/13 02:16:02;;;;;;;1999.90;999.90;;;15.90;99.90;;;;;;5525496;26;19994;-70
2024/04/13 02:18:28;;;;;;;1999.90;999.90;;;15.90;99.90;;;;;;5525554;25;20051;-67
2024/04/13 02:20:55;;;;;;;1999.90;999.90;;;15.90;99.90;;;;;;5525218;26;20073;-66
2024/04/13 02:23:21;;;;;;;1999.90;999.90;;;15.90;99.90;;;;;;5504962;26;19998;-66
2024/04/13 02:25:49;;;;;;;1999.90;999.90;;;15.80;99.90;;;;;;5488591;26;20001;-66
2024/04/13 02:28:15;;;;;;;1999.90;999.90;;;15.90;99.90;;;;;;5488598;26;20002;-66
2024/04/13 02:30:41;;;;;;;1999.90;999.90;;;15.90;99.90;;;;;;5520793;26;20329;-66
2024/04/13 02:33:07;;;;;;;1999.90;999.90;;;15.90;99.90;;;;;;5525345;26;20436;-66
2024/04/13 02:35:33;;;;;;;1999.90;999.90;;;15.90;99.90;;;;;;5524909;26;20005;-71
2024/04/13 02:37:59;;;;;;;1999.90;999.90;;;16.00;99.90;;;;;;5525411;26;19993;-67
2024/04/13 02:40:25;;;;;;;1999.90;999.90;;;16.00;99.90;;;;;;5524960;26;19998;-66
2024/04/13 02:42:51;;;;;;;1999.90;999.90;;;16.00;99.90;;;;;;5525185;26;19994;-66
2024/04/13 02:45:18;;;;;;;1999.90;999.90;;;16.00;99.90;;;;;;5525263;26;20077;-67
2024/04/13 02:47:44;;;;;;;1999.90;999.90;;;16.00;99.90;;;;;;5525008;26;20115;-70
2024/04/13 02:50:09;;;;;;;1999.90;999.90;;;15.90;99.90;;;;;;5525071;26;20069;-70
2024/04/13 02:52:36;;;;;;;1999.90;999.90;;;15.90;99.90;;;;;;5523911;26;19990;-67
2024/04/13 02:55:04;;;;;;;1999.90;999.90;;;15.80;99.90;;;;;;5524546;26;20000;-67
2024/04/13 02:57:30;;;;;;;1999.90;999.90;;;15.80;99.90;;;;;;5525512;26;20001;-70
2024/04/13 02:59:56;;;;;;;1999.90;999.90;;;15.70;99.90;;;;;;5524990;26;20081;-67
2024/04/13 03:02:23;;;;;;;1999.90;999.90;;;15.70;99.90;;;;;;5524709;26;20393;-66
2024/04/13 03:04:52;;;;;;;1999.90;999.90;;;15.70;99.90;;;;;;5524370;26;19997;-67
2024/04/13 03:07:18;;;;;;;1999.90;999.90;;;15.80;99.90;;;;;;5525249;26;19993;-66
2024/04/13 03:09:44;;;;;;;1999.90;999.90;;;15.80;99.90;;;;;;5524620;26;20005;-67
2024/04/13 03:12:10;;;;;;;1999.90;999.90;;;15.80;99.90;;;;;;5524658;26;20001;-67
2024/04/13 03:14:36;;;;;;;1999.90;999.90;;;15.70;99.90;;;;;;5524552;26;20431;-66
2024/04/13 03:17:02;;;;;;;1999.90;999.90;;;15.70;99.90;;;;;;5524493;26;20025;-67
2024/04/13 03:19:29;;;;;;;1999.90;999.90;;;15.60;99.90;;;;;;5524568;26;20354;-67
2024/04/13 03:21:54;;;;;;;1999.90;999.90;;;15.60;99.90;;;;;;5524507;26;20021;-67
2024/04/13 03:24:20;;;;;;;1999.90;999.90;;;15.60;99.90;;;;;;5489297;26;20605;-66
2024/04/13 03:26:48;;;;;;;1999.90;999.90;;;15.70;99.90;;;;;;5487662;26;20010;-71
2024/04/13 03:29:14;;;;;;;1999.90;999.90;;;15.70;99.90;;;;;;5497645;26;20332;-71
2024/04/13 03:31:41;;;;;;;1999.90;999.90;;;15.70;99.90;;;;;;5538622;25;20041;-66
2024/04/13 03:34:07;;;;;;;1999.90;999.90;;;15.60;99.90;;;;;;5561880;25;20000;-66
2024/04/13 03:36:35;;;;;;;1999.90;999.90;;;15.50;99.90;;;;;;5561342;25;20439;-66
2024/04/13 03:39:01;;;;;;;1999.90;999.90;;;15.40;99.90;;;;;;5561027;25;20004;-70
2024/04/13 03:41:27;;;;;;;1999.90;999.90;;;15.40;99.90;;;;;;5561603;25;20063;-66
2024/04/13 03:43:53;;;;;;;1999.90;999.90;;;15.30;99.90;;;;;;5561531;25;20003;-66
2024/04/13 03:46:19;;;;;;;1999.90;999.90;;;15.20;99.90;;;;;;5561766;25;19993;-66
2024/04/13 03:48:44;;;;;;;1999.90;999.90;;;15.10;99.90;;;;;;5561261;25;20061;-71
2024/04/13 03:51:10;;;;;;;1999.90;999.90;;;15.00;99.90;;;;;;5561295;25;20001;-70
2024/04/13 03:53:36;;;;;;;1999.90;999.90;;;15.00;99.90;;;;;;5561223;25;20000;-71
2024/04/13 03:56:02;;;;;;;1999.90;999.90;;;14.90;99.90;;;;;;5543839;25;20393;-67
2024/04/13 03:58:28;;;;;;;1999.90;999.90;;;14.90;99.90;;;;;;5523680;26;20443;-66
2024/04/13 04:00:54;;;;;;;1999.90;999.90;;;15.00;99.90;;;;;;5529458;25;20459;-66
2024/04/13 04:03:20;;;;;;;1999.90;999.90;;;15.00;99.90;;;;;;5526371;25;20088;-70
2024/04/13 04:05:54;;;;;;;1999.90;999.90;;;15.00;99.90;;;;;;5523836;26;20001;-66
2024/04/13 04:08:19;;;;;;;1999.90;999.90;;;14.90;99.90;;;;;;5523724;26;20000;-66
2024/04/13 04:10:45;;;;;;;1999.90;999.90;;;14.90;99.90;;;;;;5523618;26;19993;-70
2024/04/13 04:13:11;;;;;;;1999.90;999.90;;;14.90;99.90;;;;;;5540844;25;20091;-71
2024/04/13 04:15:37;;;;;;;1999.90;999.90;;;14.90;99.90;;;;;;5561294;25;20416;-66
2024/04/13 04:18:03;;;;;;;1999.90;999.90;;;14.90;99.90;;;;;;5563429;25;19993;-70
2024/04/13 04:20:32;;;;;;;1999.90;999.90;;;14.90;99.90;;;;;;5563960;25;20004;-66
2024/04/13 04:22:58;;;;;;;1999.90;999.90;;;15.00;99.90;;;;;;5549910;25;20001;-66
2024/04/13 04:25:24;;;;;;;1999.90;999.90;;;15.00;99.90;;;;;;5527016;26;20001;-66
2024/04/13 04:27:50;;;;;;;1999.90;999.90;;;15.00;99.90;;;;;;5527032;26;19993;-66
2024/04/13 04:30:16;;;;;;;1999.90;999.90;;;15.10;99.90;;;;;;5526997;26;19997;-66
2024/04/13 04:32:43;;;;;;;1999.90;999.90;;;15.20;99.90;;;;;;5526834;25;19998;-70
2024/04/13 04:35:09;;;;;;;1999.90;999.90;;;15.20;99.90;;;;;;5527405;26;20017;-71
2024/04/13 04:37:35;;;;;;;1999.90;999.90;;;15.20;99.90;;;;;;5526578;26;19997;-66
2024/04/13 04:40:01;;;;;;;1999.90;999.90;;;15.30;99.90;;;;;;5527089;26;20122;-66
2024/04/13 04:42:28;;;;;;;1999.90;999.90;;;15.30;99.90;;;;;;5526983;26;20432;-66
2024/04/13 04:44:54;;;;;;;1999.90;999.90;;;15.30;99.90;;;;;;5526935;26;19989;-66
2024/04/13 04:47:20;;;;;;;1999.90;999.90;;;15.20;99.90;;;;;;5526966;26;20021;-72
2024/04/13 04:49:46;;;;;;;1999.90;999.90;;;15.10;99.90;;;;;;5526607;26;19993;-66
2024/04/13 04:52:12;;;;;;;1999.90;999.90;;;15.20;99.90;;;;;;5527069;26;20021;-66
2024/04/13 04:54:38;;;;;;;1999.90;999.90;;;15.20;99.90;;;;;;5525554;26;20056;-66
2024/04/13 04:57:04;;;;;;;1999.90;999.90;;;15.20;99.90;;;;;;5526459;26;20009;-66
2024/04/13 04:59:30;;;;;;;1999.90;999.90;;;15.30;99.90;;;;;;5526706;26;20004;-70
2024/04/13 05:01:56;;;;;;;1999.90;999.90;;;15.30;99.90;;;;;;5526087;26;19997;-71
2024/04/13 05:04:23;;;;;;;1999.90;999.90;;;15.20;99.90;;;;;;5526730;26;20004;-66
2024/04/13 05:06:49;;;;;;;1999.90;999.90;;;15.10;99.90;;;;;;5527117;26;20008;-66
2024/04/13 05:09:15;;;;;;;1999.90;999.90;;;15.10;99.90;;;;;;5526439;26;19994;-66
2024/04/13 05:11:40;;;;;;;1999.90;999.90;;;15.00;99.90;;;;;;5526347;26;19997;-66
2024/04/13 05:14:07;;;;;;;1999.90;999.90;;;15.10;99.90;;;;;;5526737;26;20065;-70
2024/04/13 05:16:34;;;;;;;1999.90;999.90;;;15.00;99.90;;;;;;5526685;26;20009;-66
2024/04/13 05:19:01;;;;;;;1999.90;999.90;;;15.00;99.90;;;;;;5526531;26;20389;-71
2024/04/13 05:21:26;;;;;;;1999.90;999.90;;;15.10;99.90;;;;;;5526333;26;20288;-66
2024/04/13 05:23:52;;;;;;;1999.90;999.90;;;15.10;99.90;;;;;;5498031;26;20002;-66
2024/04/13 05:26:18;;;;;;;1999.90;999.90;;;15.10;99.90;;;;;;5490184;26;19990;-70
2024/04/13 05:28:44;;;;;;;1999.90;999.90;;;15.10;99.90;;;;;;5492184;26;19998;-71
2024/04/13 05:31:09;;;;;;;1999.90;999.90;;;15.00;99.90;;;;;;5525798;26;20308;-66
2024/04/13 05:33:36;;;;;;;1999.90;999.90;;;15.10;99.90;;;;;;5526359;26;20007;-66
2024/04/13 05:36:02;;;;;;;1999.90;999.90;;;15.10;99.90;;;;;;5526105;26;19989;-66
2024/04/13 05:38:29;;;;;;;1999.90;999.90;;;15.10;99.90;;;;;;5526119;26;20072;-71
2024/04/13 05:40:56;;;;;;;1999.90;999.90;;;15.20;99.90;;;;;;5526016;25;20053;-71
2024/04/13 05:43:22;;;;;;;1999.90;999.90;;;15.30;99.90;;;;;;5526570;26;20021;-66
2024/04/13 05:45:48;;;;;;;1999.90;999.90;;;15.50;99.90;;;;;;5526330;25;20000;-67
2024/04/13 05:48:14;;;;;;;1999.90;999.90;;;15.60;99.90;;;;;;5526512;26;20428;-66
2024/04/13 05:50:40;;;;;;;1999.90;999.90;;;15.60;99.90;;;;;;5525808;26;19993;-66
2024/04/13 05:53:06;;;;;;;1999.90;999.90;;;15.70;99.90;;;;;;5525857;26;20004;-70
2024/04/13 05:55:35;;;;;;;1999.90;999.90;;;15.70;99.90;;;;;;5524410;26;19997;-67
2024/04/13 05:58:01;;;;;;;1999.90;999.90;;;15.70;99.90;;;;;;5525892;26;19997;-66
2024/04/13 06:00:26;;;;;;;1999.90;999.90;;;15.80;99.90;;;;;;5525672;26;20029;-66
2024/04/13 06:02:52;;;;;;;1999.90;999.90;;;15.90;99.90;;;;;;5525506;26;20000;-66
2024/04/13 06:05:17;;;;;;;1999.90;999.90;;;16.00;99.90;;;;;;5525971;26;19997;-66
2024/04/13 06:07:43;;;;;;;1999.90;999.90;;;16.10;99.90;;;;;;5525581;26;19989;-66
2024/04/13 06:10:09;;;;;;;1999.90;999.90;;;16.10;99.90;;;;;;5525667;26;20001;-70
2024/04/13 06:12:35;;;;;;;1999.90;999.90;;;16.10;99.90;;;;;;5525136;26;19994;-70
2024/04/13 06:15:00;;;;;;;1999.90;999.90;;;16.20;99.90;;;;;;5525748;26;20362;-66
2024/04/13 06:17:26;;;;;;;1999.90;999.90;;;16.40;99.90;;;;;;5525752;26;20417;-67
2024/04/13 06:19:52;;;;;;;1999.90;999.90;;;16.50;99.90;;;;;;5525459;26;19990;-67
2024/04/13 06:22:23;;;;;;;1999.90;999.90;;;16.60;99.90;;;;;;5521283;26;20065;-71
2024/04/13 06:24:51;;;;;;;1999.90;999.90;;;16.70;99.90;;;;;;5488786;26;20002;-66
2024/04/13 06:27:18;;;;;;;1999.90;999.90;;;16.80;99.90;;;;;;5488660;26;19998;-71
2024/04/13 06:29:49;;;;;;;1999.90;999.90;;;16.80;99.90;;;;;;5506046;26;20029;-70
2024/04/13 06:32:16;;;;;;;1999.90;999.90;;;16.80;99.90;;;;;;5525214;26;19998;-71
2024/04/13 06:34:41;;;;;;;1999.90;999.90;;;16.90;99.90;;;;;;5525453;26;20004;-71
2024/04/13 06:37:07;;;;;;;1999.90;999.90;;;16.90;99.90;;;;;;5525291;26;20013;-70
2024/04/13 06:39:33;;;;;;;1999.90;999.90;;;17.00;99.90;;;;;;5524451;26;20008;-67
2024/04/13 06:41:58;;;;;;;1999.90;999.90;;;17.00;99.90;;;;;;5525161;26;19993;-67
2024/04/13 06:44:24;;;;;;;1999.90;999.90;;;17.00;99.90;;;;;;5525799;26;20070;-67
2024/04/13 06:46:52;;;;;;;1999.90;999.90;;;17.10;99.90;;;;;;5525439;26;19989;-67
2024/04/13 06:49:19;;;;;;;1999.90;999.90;;;17.20;99.90;;;;;;5525181;26;19997;-71
2024/04/13 06:51:45;;;;;;;1999.90;999.90;;;17.20;99.90;;;;;;5524843;26;20005;-67
2024/04/13 06:54:11;;;;;;;1999.90;999.90;;;17.10;99.90;;;;;;5523813;26;20420;-67
2024/04/13 06:56:36;;;;;;;1999.90;999.90;;;17.00;99.90;;;;;;5524787;26;20012;-70
2024/04/13 06:59:03;;;;;;;1999.90;999.90;;;16.90;99.90;;;;;;5525189;26;19993;-70
2024/04/13 07:01:29;;;;;;;1999.90;999.90;;;16.90;99.90;;;;;;5524714;26;19994;-67
2024/04/13 07:03:56;;;;;;;1999.90;999.90;;;16.90;99.90;;;;;;5525462;26;20008;-70
2024/04/13 07:06:23;;;;;;;1999.90;999.90;;;16.90;99.90;;;;;;5525075;26;20002;-67
2024/04/13 07:08:49;;;;;;;1999.90;999.90;;;16.80;99.90;;;;;;5524701;26;20029;-67
2024/04/13 07:11:15;;;;;;;1999.90;999.90;;;16.70;99.90;;;;;;5524919;25;20004;-71
2024/04/13 07:13:41;;;;;;;1999.90;999.90;;;16.60;99.90;;;;;;5525057;26;19993;-67
2024/04/13 07:16:07;;;;;;;1999.90;999.90;;;16.60;99.90;;;;;;5523858;26;20060;-67
2024/04/13 07:18:33;;;;;;;1999.90;999.90;;;16.60;99.90;;;;;;5525492;26;20072;-67
2024/04/13 07:20:58;;;;;;;1999.90;999.90;;;16.60;99.90;;;;;;5524834;26;20407;-67
2024/04/13 07:23:24;;;;;;;1999.90;999.90;;;16.60;99.90;;;;;;5503803;26;20070;-67
2024/04/13 07:25:58;;;;;;;1999.90;999.90;;;16.70;99.90;;;;;;5487839;26;19998;-70
2024/04/13 07:28:25;;;;;;;1999.90;999.90;;;16.70;99.90;;;;;;5487741;26;19994;-67
2024/04/13 07:30:51;;;;;;;1999.90;999.90;;;16.80;99.90;;;;;;5522449;26;19997;-71
2024/04/13 07:33:16;;;;;;;1999.90;999.90;;;16.90;99.90;;;;;;5524541;26;19997;-67
2024/04/13 07:35:42;;;;;;;1999.90;999.90;;;17.10;99.90;;;;;;5524601;26;20398;-71
2024/04/13 07:38:07;;;;;;;1999.90;999.90;;;17.10;99.90;;;;;;5524116;26;20000;-70
2024/04/13 07:40:34;;;;;;;1999.90;999.90;;;17.20;99.90;;;;;;5524435;26;19993;-70
2024/04/13 07:43:00;;;;;;;1999.90;999.90;;;17.30;99.90;;;;;;5523800;26;20009;-67
2024/04/13 07:45:25;;;;;;;1999.90;999.90;;;17.40;99.90;;;;;;5524399;26;19994;-71
2024/04/13 07:47:51;;;;;;;1999.90;999.90;;;17.60;99.90;;;;;;5524265;26;20284;-71
2024/04/13 07:50:17;;;;;;;1999.90;999.90;;;17.80;99.90;;;;;;5523764;26;20086;-71
2024/04/13 07:52:43;;;;;;;1999.90;999.90;;;18.00;99.90;;;;;;5522385;26;19993;-67
2024/04/13 07:55:08;;;;;;;1999.90;999.90;;;18.20;99.90;;;;;;5523830;26;20039;-67
2024/04/13 07:57:34;;;;;;;1999.90;999.90;;;18.50;99.90;;;;;;5524723;26;19994;-67
2024/04/13 07:59:59;;;;;;;1999.90;999.90;;;18.70;99.90;;;;;;5523968;26;20409;-72
2024/04/13 08:02:25;;;;;;;1999.90;999.90;;;19.30;99.90;;;;;;5523640;26;19993;-67
2024/04/13 08:04:51;;;;;;;1999.90;999.90;;;22.20;99.90;;;;;;5523674;26;19993;-71
2024/04/13 08:07:16;;;;;;;1999.90;999.90;;;24.80;99.90;;;;;;5524029;26;20002;-72
2024/04/13 08:09:42;;;;;;;1999.90;999.90;;;26.40;99.90;;;;;;5523715;26;19993;-72
2024/04/13 08:12:10;;;;;;;1999.90;999.90;;;27.70;99.90;;;;;;5524042;26;19993;-66
2024/04/13 08:14:36;;;;;;;1999.90;999.90;;;28.00;99.90;;;;;;5524015;26;20067;-70
2024/04/13 08:17:03;;;;;;;1999.90;999.90;;;28.50;99.90;;;;;;5524184;26;19997;-69
2024/04/13 08:19:28;;;;;;;1999.90;999.90;;;29.30;99.90;;;;;;5524113;26;20000;-67
2024/04/13 08:21:54;;;;;;;1999.90;999.90;;;30.20;99.90;;;;;;5524002;26;19997;-66
2024/04/13 08:24:20;;;;;;;1999.90;999.90;;;30.90;99.90;;;;;;5488196;26;19994;-67
2024/04/13 08:26:45;;;;;;;1999.90;999.90;;;31.40;99.90;;;;;;5486566;26;20023;-67
2024/04/13 08:29:11;;;;;;;1999.90;999.90;;;32.70;99.90;;;;;;5496668;25;20320;-71
2024/04/13 08:31:38;;;;;;;1999.90;999.90;;;32.30;99.90;;;;;;5522586;26;20041;-67
2024/04/13 08:34:03;;;;;;;1999.90;999.90;;;32.20;99.90;;;;;;5523574;26;20005;-68
2024/04/13 08:36:29;;;;;;;1999.90;999.90;;;32.30;99.90;;;;;;5523491;26;19993;-68
2024/04/13 08:38:55;;;;;;;1999.90;999.90;;;33.00;99.90;;;;;;5523416;26;19993;-68
2024/04/13 08:41:32;;;;;;;1999.90;999.90;;;33.40;99.90;;;;;;5523669;26;20535;-70
2024/04/13 08:43:59;;;;;;;1999.90;999.90;;;34.10;99.90;;;;;;5523473;26;20004;-71
2024/04/13 08:46:26;;;;;;;1999.90;999.90;;;33.40;99.90;;;;;;5523300;26;20005;-71
2024/04/13 08:48:52;;;;;;;1999.90;999.90;;;33.30;99.90;;;;;;5522983;26;20313;-67
2024/04/13 08:51:20;;;;;;;1999.90;999.90;;;32.40;99.90;;;;;;5521359;26;19995;-68
2024/04/13 08:53:49;;;;;;;1999.90;999.90;;;32.40;99.90;;;;;;5522951;26;19993;-71
2024/04/13 08:56:17;;;;;;;1999.90;999.90;;;32.60;99.90;;;;;;5522724;25;20013;-72
2024/04/13 08:58:46;;;;;;;1999.90;999.90;;;33.70;99.90;;;;;;5522994;26;19994;-68
2024/04/13 09:01:15;;;;;;;1999.90;999.90;;;33.60;99.90;;;;;;5523197;26;20388;-67
2024/04/13 09:03:41;;;;;;;1999.90;999.90;;;32.40;99.90;;;;;;5524552;26;20001;-67
2024/04/13 09:06:08;;;;;;;1999.90;999.90;;;31.80;99.90;;;;;;5526656;26;20012;-72
2024/04/13 09:08:36;;;;;;;1999.90;999.90;;;33.00;99.90;;;;;;5526254;26;20041;-67
2024/04/13 09:11:05;;;;;;;1999.90;999.90;;;33.00;99.90;;;;;;5526508;26;20008;-67
2024/04/13 09:13:31;;;;;;;1999.90;999.90;;;33.10;99.90;;;;;;5526509;26;20004;-71
2024/04/13 09:15:58;;;;;;;1999.90;999.90;;;32.70;99.90;;;;;;5526334;26;19993;-68
2024/04/13 09:18:24;;;;;;;1999.90;999.90;;;32.80;99.90;;;;;;5526587;26;20005;-71
2024/04/13 09:20:49;;;;;;;1999.90;999.90;;;32.40;99.90;;;;;;5526023;26;19990;-71
2024/04/13 09:23:17;;;;;;;1999.90;999.90;;;33.20;99.90;;;;;;5507411;26;19998;-68
2024/04/13 09:25:43;;;;;;;1999.90;999.90;;;33.10;99.90;;;;;;5489433;26;20062;-72
2024/04/13 09:28:10;;;;;;;1999.90;999.90;;;33.20;99.90;;;;;;5489515;26;20422;-67
2024/04/13 09:30:35;;;;;;;1999.90;999.90;;;34.60;99.90;;;;;;5520219;26;20401;-71
2024/04/13 09:33:06;;;;;;;1999.90;999.90;;;33.40;99.90;;;;;;5489212;26;20006;-71
2024/04/13 09:35:35;;;;;;;1999.90;999.90;;;33.10;99.90;;;;;;5489285;26;20462;-71
2024/04/13 09:38:01;;;;;;;1999.90;999.90;;;32.10;99.90;;;;;;5489268;26;20006;-67
2024/04/13 09:40:30;;;;;;;1999.90;999.90;;;32.60;99.90;;;;;;5489053;26;20094;-67
2024/04/13 09:42:57;;;;;;;1999.90;999.90;;;33.40;99.90;;;;;;5489212;26;19990;-68
2024/04/13 09:45:23;;;;;;;1999.90;999.90;;;32.90;99.90;;;;;;5489171;26;20068;-67
2024/04/13 09:47:52;;;;;;;1999.90;999.90;;;33.70;99.90;;;;;;5489066;26;20009;-71
2024/04/13 09:50:18;;;;;;;1999.90;999.90;;;33.60;99.90;;;;;;5489045;26;20039;-67
2024/04/13 09:52:44;;;;;;;1999.90;999.90;;;33.10;99.90;;;;;;5488669;26;19994;-68
2024/04/13 09:55:11;;;;;;;1999.90;999.90;;;33.00;99.90;;;;;;5490966;26;20071;-71
2024/04/13 09:57:38;;;;;;;1999.90;999.90;;;32.30;99.90;;;;;;5524756;26;20336;-71
2024/04/13 10:00:07;;;;;;;1999.90;999.90;;;31.70;99.90;;;;;;5525845;26;20437;-71
2024/04/13 10:02:33;;;;;;;1999.90;999.90;;;31.10;99.90;;;;;;5525314;26;19993;-67
2024/04/13 10:05:01;;;;;;;1999.90;999.90;;;30.30;99.90;;;;;;5525797;26;20477;-67
2024/04/13 10:07:28;;;;;;;1999.90;999.90;;;30.20;99.90;;;;;;5526170;26;19989;-67
2024/04/13 10:10:01;;;;;;;1999.90;999.90;;;30.10;99.90;;;;;;5525679;26;20029;-67
2024/04/13 10:12:32;;;;;;;1999.90;999.90;;;30.10;99.90;;;;;;5525579;26;20005;-71
2024/04/13 10:14:59;;;;;;;1999.90;999.90;;;29.90;99.90;;;;;;5524623;26;20021;-67
2024/04/13 10:17:26;;;;;;;1999.90;999.90;;;28.90;99.90;;;;;;5525651;26;20005;-71
2024/04/13 10:19:52;;;;;;;1999.90;999.90;;;28.60;99.90;;;;;;5525280;26;20356;-67
2024/04/13 10:22:21;;;;;;;1999.90;999.90;;;28.20;99.90;;;;;;5521817;26;19989;-67
2024/04/13 10:24:46;;;;;;;1999.90;999.90;;;27.40;99.90;;;;;;5488621;26;19998;-71
2024/04/13 10:27:13;;;;;;;1999.90;999.90;;;27.40;99.90;;;;;;5488509;26;20397;-67
2024/04/13 10:29:46;;;;;;;1999.90;999.90;;;27.20;99.90;;;;;;5504594;26;20013;-67
2024/04/13 10:32:16;;;;;;;1999.90;999.90;;;27.00;99.90;;;;;;5525567;26;19994;-67
2024/04/13 10:34:42;;;;;;;1999.90;999.90;;;27.00;99.90;;;;;;5525658;26;19994;-67
2024/04/13 10:37:32;;;;;;;1999.90;999.90;;;27.10;99.90;;;;;;5525516;26;20007;-71
2024/04/13 10:40:00;;;;;;;1999.90;999.90;;;27.00;99.90;;;;;;5525114;26;20069;-71
2024/04/13 10:42:42;;;;;;;1999.90;999.90;;;26.70;99.90;;;;;;5525695;26;20433;-71
2024/04/13 10:45:16;;;;;;;;;;;26.70;99.90;;;;;;5525609;26;19994;-67
2024/04/13 10:47:42;;;;;;;1999.90;999.90;;;27.00;99.90;;;;;;5525217;26;19923;-66
2024/04/13 10:50:13;;;;;;;1999.90;999.90;;;26.70;99.90;;;;;;5525462;25;20017;-70
2024/04/13 10:52:39;;;;;;;1999.90;999.90;;;26.50;99.90;;;;;;5524834;26;19993;-70
2024/04/13 10:55:05;;;;;;;1999.90;999.90;;;26.30;99.90;;;;;;5524749;26;20001;-66
2024/04/13 10:57:31;;;;;;;1999.90;999.90;;;26.00;99.90;;;;;;5525104;26;20008;-66
2024/04/13 10:59:56;;;;;;;1999.90;999.90;;;25.80;99.90;;;;;;5525052;26;20005;-70
2024/04/13 11:02:22;;;;;;;1999.90;999.90;;;25.90;99.90;;;;;;5524785;26;19990;-71
2024/04/13 11:04:49;;;;;;;1999.90;999.90;;;25.70;99.90;;;;;;5524589;26;19993;-70
2024/04/13 11:07:15;;;;;;;1999.90;999.90;;;26.00;99.90;;;;;;5524840;25;20001;-71
2024/04/13 11:09:41;;;;;;;1999.90;999.90;;;26.20;99.90;;;;;;5524518;26;19993;-66
2024/04/13 11:12:08;;;;;;;1999.90;999.90;;;26.20;99.90;;;;;;5524808;26;20000;-66
2024/04/13 11:14:34;;;;;;;1999.90;999.90;;;26.10;99.90;;;;;;5524286;26;20321;-66
2024/04/13 11:16:59;;;;;;;1999.90;999.90;;;26.60;99.90;;;;;;5524510;26;19989;-70
2024/04/13 11:19:25;;;;;;;1999.90;999.90;;;26.40;99.90;;;;;;5524497;25;20023;-66
2024/04/13 11:21:52;;;;;;;1999.90;999.90;;;26.70;99.90;;;;;;5524722;26;19993;-66
2024/04/13 11:24:18;;;;;;;1999.90;999.90;;;26.50;99.90;;;;;;5490066;26;20339;-66
2024/04/13 11:26:46;;;;;;;1999.90;999.90;;;26.80;99.90;;;;;;5487552;26;19994;-70
2024/04/13 11:29:11;;;;;;;1999.90;999.90;;;26.90;99.90;;;;;;5497060;26;20005;-67
2024/04/13 11:31:37;;;;;;;1999.90;999.90;;;26.90;99.90;;;;;;5524078;26;19997;-66
2024/04/13 11:34:04;;;;;;;1999.90;999.90;;;26.80;99.90;;;;;;5524358;26;20009;-66
2024/04/13 11:36:30;;;;;;;1999.90;999.90;;;26.20;99.90;;;;;;5523380;26;20334;-66
2024/04/13 11:38:55;;;;;;;1999.90;999.90;;;26.20;99.90;;;;;;5524242;26;20008;-66
2024/04/13 11:41:24;;;;;;;1999.90;999.90;;;26.00;99.90;;;;;;5524345;26;19997;-66
2024/04/13 11:43:53;;;;;;;1999.90;999.90;;;26.10;99.90;;;;;;5524817;26;20005;-70
2024/04/13 11:46:19;;;;;;;1999.90;999.90;;;26.10;99.90;;;;;;5522462;26;20069;-66
2024/04/13 11:48:45;;;;;;;1999.90;999.90;;;25.80;99.90;;;;;;5524213;26;20009;-70
2024/04/13 11:51:11;;;;;;;1999.90;999.90;;;25.70;99.90;;;;;;5524695;26;19993;-69
2024/04/13 11:53:36;;;;;;;1999.90;999.90;;;25.70;99.90;;;;;;5524058;26;19993;-70
2024/04/13 11:56:07;;;;;;;1999.90;999.90;;;25.60;99.90;;;;;;5524246;26;20382;-66